Time;durP1;ratioP1;P1;durP2;ratioP2;P2;SDS_P1;SDS_P2;PMS_P1;PMS_P2;Temp;Humidity;BMP_temperature;BMP_pressure;BME280_temperature;BME280_humidity;BME280_pressure;Samples;Min_cycle;Max_cycle;Signal;HPM_P1;HPM_P2
2024/01/15 00:02:06;;;;;;;4.72;1.30;;;;;;;0.88;100.00;99838.63;4981519;28;20057;-79
2024/01/15 00:04:40;;;;;;;11.23;1.25;;;;;;;0.85;100.00;99822.09;4996064;28;20050;-78
2024/01/15 00:07:08;;;;;;;5.78;1.95;;;;;;;0.81;100.00;99817.66;4982810;28;20041;-78
2024/01/15 00:09:36;;;;;;;7.47;1.60;;;;;;;0.77;100.00;99812.38;4998070;28;20045;-78
2024/01/15 00:12:05;;;;;;;9.50;2.00;;;;;;;0.74;100.00;99809.72;5007249;28;20057;-78
2024/01/15 00:14:32;;;;;;;9.05;2.10;;;;;;;0.72;100.00;99793.25;5002730;28;20045;-80
2024/01/15 00:16:59;;;;;;;10.88;1.67;;;;;;;0.72;100.00;99793.25;4971252;28;20102;-79
2024/01/15 00:19:27;;;;;;;7.32;1.73;;;;;;;0.70;100.00;99792.34;4994567;28;20047;-78
2024/01/15 00:21:54;;;;;;;10.23;1.33;;;;;;;0.70;100.00;99788.84;4960900;28;20049;-80
2024/01/15 00:24:22;;;;;;;5.80;1.40;;;;;;;0.70;100.00;99781.97;5008283;28;20550;-79
2024/01/15 00:26:50;;;;;;;5.22;1.50;;;;;;;0.70;100.00;99775.88;5000885;28;20049;-80
2024/01/15 00:29:17;;;;;;;3.88;1.30;;;;;;;0.71;100.00;99765.56;5005396;28;20042;-79
2024/01/15 00:31:45;;;;;;;5.53;1.50;;;;;;;0.75;100.00;99767.38;5004154;28;20054;-79
2024/01/15 00:34:12;;;;;;;11.18;1.85;;;;;;;0.79;100.00;99752.78;4973613;28;20077;-79
2024/01/15 00:36:40;;;;;;;8.35;1.65;;;;;;;0.82;100.00;99744.22;4963529;28;20038;-77
2024/01/15 00:39:07;;;;;;;12.15;1.90;;;;;;;0.86;100.00;99752.09;4994677;28;20078;-78
2024/01/15 00:41:35;;;;;;;7.97;1.90;;;;;;;0.89;100.00;99739.22;4993181;28;20061;-79
2024/01/15 00:44:02;;;;;;;11.63;2.65;;;;;;;0.92;100.00;99749.66;5003907;28;20050;-78
2024/01/15 00:46:30;;;;;;;13.65;2.67;;;;;;;0.91;100.00;99739.25;4999546;28;20057;-78
2024/01/15 00:48:57;;;;;;;9.30;1.50;;;;;;;0.90;100.00;99740.09;4987401;28;20495;-78
2024/01/15 00:51:25;;;;;;;11.48;2.42;;;;;;;0.87;100.00;99734.81;4996819;28;20050;-79
2024/01/15 00:53:52;;;;;;;12.93;2.08;;;;;;;0.84;100.00;99743.41;4985225;28;20526;-80
2024/01/15 00:56:19;;;;;;;15.20;2.25;;;;;;;0.82;100.00;99736.44;4989980;28;20809;-79
2024/01/15 00:58:47;;;;;;;9.70;2.17;;;;;;;0.86;100.00;99738.25;5001521;28;20604;-79
2024/01/15 01:01:14;;;;;;;13.75;2.17;;;;;;;0.94;100.00;99747.09;5003566;28;20053;-79
2024/01/15 01:03:42;;;;;;;22.60;3.13;;;;;;;1.00;100.00;99742.06;4984555;28;20050;-80
2024/01/15 01:06:09;;;;;;;20.73;2.83;;;;;;;1.08;100.00;99766.50;4978728;28;20057;-79
2024/01/15 01:08:37;;;;;;;19.50;3.45;;;;;;;1.15;100.00;99752.81;4975192;28;20056;-78
2024/01/15 01:11:04;;;;;;;13.73;3.15;;;;;;;1.20;100.00;99759.84;4991011;28;20038;-79
2024/01/15 01:13:32;;;;;;;14.73;3.10;;;;;;;1.25;100.00;99758.19;4999756;28;20507;-79
2024/01/15 01:15:59;;;;;;;17.45;3.17;;;;;;;1.32;100.00;99760.09;4998266;28;20104;-78
2024/01/15 01:18:27;;;;;;;14.32;2.08;;;;;;;1.37;100.00;99742.91;5009230;28;20046;-79
2024/01/15 01:20:55;;;;;;;11.30;2.45;;;;;;;1.41;100.00;99747.34;4978835;28;20050;-79
2024/01/15 01:23:22;;;;;;;9.20;1.70;;;;;;;1.43;100.00;99743.06;4973049;28;20652;-77
2024/01/15 01:25:49;;;;;;;9.98;1.77;;;;;;;1.45;100.00;99735.31;5007817;28;20060;-78
2024/01/15 01:28:17;;;;;;;13.73;1.92;;;;;;;1.49;100.00;99731.94;5007712;28;20050;-79
2024/01/15 01:30:44;;;;;;;10.40;1.85;;;;;;;1.54;100.00;99723.41;5003263;28;20046;-80
2024/01/15 01:33:12;;;;;;;17.08;1.98;;;;;;;1.60;100.00;99722.66;5022401;28;20065;-80
2024/01/15 01:35:40;;;;;;;8.43;1.83;;;;;;;1.65;100.00;99726.22;4995802;28;20041;-80
2024/01/15 01:38:07;;;;;;;13.75;2.50;;;;;;;1.67;100.00;99731.47;4990532;28;20082;-78
2024/01/15 01:40:34;;;;;;;15.98;3.13;;;;;;;1.69;100.00;99737.56;4954300;28;20042;-78
2024/01/15 01:43:04;;;;;;;9.80;2.08;;;;;;;1.69;100.00;99734.97;4992333;28;20042;-79
2024/01/15 01:45:31;;;;;;;10.77;2.10;;;;;;;1.66;100.00;99724.50;5020470;28;20399;-79
2024/01/15 01:48:00;;;;;;;10.95;3.38;;;;;;;1.66;100.00;99725.38;4996527;28;20061;-79
2024/01/15 01:50:31;;;;;;;12.13;2.60;;;;;;;1.66;100.00;99729.69;5009639;28;20038;-78
2024/01/15 01:53:01;;;;;;;13.70;2.72;;;;;;;1.65;100.00;99733.16;5005499;28;20389;-79
2024/01/15 01:55:31;;;;;;;23.15;2.42;;;;;;;1.63;100.00;99724.44;4971632;28;20077;-79
2024/01/15 01:57:58;;;;;;;16.20;3.10;;;;;;;1.61;100.00;99733.91;4994127;28;20043;-79
2024/01/15 02:00:25;;;;;;;20.38;4.70;;;;;;;1.55;100.00;99716.47;4990599;28;20301;-79
2024/01/15 02:02:53;;;;;;;16.90;2.83;;;;;;;1.54;100.00;99717.34;5003925;28;20050;-79
2024/01/15 02:05:22;;;;;;;18.50;3.13;;;;;;;1.52;100.00;99719.88;5009458;28;20050;-78
2024/01/15 02:07:50;;;;;;;19.40;4.28;;;;;;;1.50;100.00;99713.78;4986127;28;20058;-78
2024/01/15 02:10:17;;;;;;;15.57;3.25;;;;;;;1.53;100.00;99720.75;4996501;28;20090;-78
2024/01/15 02:12:48;;;;;;;17.85;3.22;;;;;;;1.54;100.00;99715.59;5002505;28;20054;-79
2024/01/15 02:15:16;;;;;;;26.98;3.35;;;;;;;1.56;100.00;99720.84;5008375;28;20042;-78
2024/01/15 02:18:13;;;;;;;22.98;4.07;;;;;;;1.57;100.00;99714.81;4993397;28;20058;-79
2024/01/15 02:20:40;;;;;;;14.65;3.00;;;;;;;1.61;100.00;99716.63;5003210;28;20053;-79
2024/01/15 02:23:15;;;;;;;15.48;3.33;;;;;;;1.63;100.00;99711.47;4987452;28;20050;-79
2024/01/15 02:25:45;;;;;;;17.42;2.90;;;;;;;1.65;100.00;99717.56;4986657;28;20037;-80
2024/01/15 02:28:17;;;;;;;25.25;3.15;;;;;;;1.67;100.00;99708.09;4971810;28;20054;-79
2024/01/15 02:30:45;;;;;;;20.48;4.32;;;;;;;1.68;100.00;99705.53;4997966;28;20056;-79
2024/01/15 02:33:13;;;;;;;20.10;4.15;;;;;;;1.69;100.00;99703.81;4999732;28;20042;-80
2024/01/15 02:35:41;;;;;;;24.77;2.95;;;;;;;1.71;100.00;99709.91;5010901;28;20041;-79
2024/01/15 02:38:09;;;;;;;22.88;3.83;;;;;;;1.72;100.00;99714.22;4992246;28;20046;-81
2024/01/15 02:40:38;;;;;;;20.63;3.58;;;;;;;1.75;100.00;99714.31;4972644;28;20431;-79
2024/01/15 02:43:05;;;;;;;23.42;3.28;;;;;;;1.78;100.00;99718.69;4973976;28;20496;-80
2024/01/15 02:45:33;;;;;;;16.15;3.28;;;;;;;1.80;100.00;99717.00;5009416;28;20046;-79
2024/01/15 02:48:00;;;;;;;19.88;3.15;;;;;;;1.81;100.00;99704.03;4987351;28;20049;-79
2024/01/15 02:50:28;;;;;;;28.85;4.10;;;;;;;1.84;100.00;99709.31;5008447;28;20050;-78
2024/01/15 02:52:55;;;;;;;19.27;3.20;;;;;;;1.87;100.00;99711.97;5007599;28;20050;-77
2024/01/15 02:55:22;;;;;;;22.48;3.67;;;;;;;1.89;100.00;99720.66;4982066;28;20042;-78
2024/01/15 02:57:50;;;;;;;20.13;4.22;;;;;;;1.89;100.00;99712.88;4993730;28;20049;-79
2024/01/15 03:00:18;;;;;;;16.48;3.00;;;;;;;1.89;100.00;99712.88;5007918;28;20057;-77
2024/01/15 03:02:45;;;;;;;23.23;3.65;;;;;;;1.88;100.00;99724.09;4991133;28;20400;-78
2024/01/15 03:05:15;;;;;;;16.42;3.35;;;;;;;1.88;100.00;99718.91;4994337;28;20046;-78
2024/01/15 03:07:43;;;;;;;24.63;3.45;;;;;;;1.89;100.00;99736.25;4999001;28;20521;-78
2024/01/15 03:10:13;;;;;;;15.52;3.47;;;;;;;1.90;100.00;99734.53;4991351;28;20053;-79
2024/01/15 03:12:43;;;;;;;17.38;3.03;;;;;;;1.92;100.00;99733.69;4979142;28;20049;-79
2024/01/15 03:15:11;;;;;;;14.38;2.55;;;;;;;1.94;100.00;99731.13;5007565;28;20054;-79
2024/01/15 03:17:38;;;;;;;11.10;2.08;;;;;;;1.92;100.00;99719.84;5007353;28;20053;-78
2024/01/15 03:20:07;;;;;;;12.30;2.05;;;;;;;1.91;100.00;99720.66;5007653;28;20060;-79
2024/01/15 03:22:34;;;;;;;11.07;2.00;;;;;;;1.88;100.00;99731.91;5007068;28;20061;-79
2024/01/15 03:25:03;;;;;;;14.98;3.22;;;;;;;1.90;100.00;99732.78;4977591;28;20054;-79
2024/01/15 03:27:31;;;;;;;19.60;3.25;;;;;;;1.91;100.00;99738.84;4966495;28;20058;-78
2024/01/15 03:29:58;;;;;;;15.57;3.60;;;;;;;1.93;100.00;99740.66;5008670;28;20053;-79
2024/01/15 03:32:26;;;;;;;19.70;3.28;;;;;;;1.90;100.00;99738.00;5006060;28;20042;-78
2024/01/15 03:34:53;;;;;;;10.98;3.25;;;;;;;1.89;100.00;99733.66;4999778;28;20073;-78
2024/01/15 03:37:21;;;;;;;12.75;2.45;;;;;;;1.83;100.00;99730.91;4988528;28;20057;-79
2024/01/15 03:39:48;;;;;;;12.70;2.65;;;;;;;1.81;100.00;99739.53;4993747;28;20522;-79
2024/01/15 03:42:16;;;;;;;6.93;1.85;;;;;;;1.78;100.00;99739.47;4980931;28;20043;-80
2024/01/15 03:44:43;;;;;;;13.00;1.85;;;;;;;1.75;100.00;99728.16;4957433;28;20050;-78
2024/01/15 03:47:11;;;;;;;9.75;2.00;;;;;;;1.74;100.00;99731.63;5005148;28;20061;-79
2024/01/15 03:49:41;;;;;;;15.05;2.35;;;;;;;1.76;100.00;99726.47;4999964;28;20042;-79
2024/01/15 03:52:09;;;;;;;7.82;2.42;;;;;;;1.77;100.00;99730.78;4978240;28;20046;-79
2024/01/15 03:54:37;;;;;;;15.18;2.75;;;;;;;1.80;100.00;99728.28;5007349;28;20434;-78
2024/01/15 03:57:05;;;;;;;9.75;2.40;;;;;;;1.84;100.00;99727.50;4970957;28;20050;-78
2024/01/15 03:59:32;;;;;;;17.58;2.72;;;;;;;1.84;100.00;99730.09;4987578;28;20052;-78
2024/01/15 04:01:59;;;;;;;13.20;2.22;;;;;;;1.85;100.00;99736.16;5005894;28;20034;-79
2024/01/15 04:04:27;;;;;;;11.20;2.67;;;;;;;1.84;100.00;99745.66;4983461;28;20255;-78
2024/01/15 04:06:54;;;;;;;5.28;1.40;;;;;;;1.82;100.00;99736.09;5013832;28;20050;-78
2024/01/15 04:09:22;;;;;;;10.07;1.52;;;;;;;1.78;100.00;99718.69;4984309;28;20050;-79
2024/01/15 04:11:50;;;;;;;8.75;2.15;;;;;;;1.71;100.00;99722.88;5002399;28;20046;-79
2024/01/15 04:14:17;;;;;;;3.95;1.48;;;;;;;1.63;100.00;99714.94;4965835;28;20049;-78
2024/01/15 04:16:44;;;;;;;7.15;1.58;;;;;;;1.58;100.00;99706.16;5006334;28;20045;-78
2024/01/15 04:19:12;;;;;;;10.57;1.95;;;;;;;1.53;100.00;99711.28;5007284;28;20090;-79
2024/01/15 04:21:39;;;;;;;10.55;2.17;;;;;;;1.51;100.00;99709.47;5007371;28;20105;-78
2024/01/15 04:24:07;;;;;;;7.07;1.75;;;;;;;1.51;100.00;99725.94;4992931;28;20050;-79
2024/01/15 04:26:34;;;;;;;12.75;2.95;;;;;;;1.57;100.00;99722.59;5000847;28;20062;-78
2024/01/15 04:29:02;;;;;;;8.75;1.80;;;;;;;1.63;100.00;99730.53;4967257;28;20423;-78
2024/01/15 04:31:29;;;;;;;5.55;1.42;;;;;;;1.69;100.00;99724.56;4998979;28;20046;-79
2024/01/15 04:33:57;;;;;;;6.32;1.98;;;;;;;1.70;100.00;99710.72;5003347;28;20038;-79
2024/01/15 04:36:24;;;;;;;6.55;1.52;;;;;;;1.66;100.00;99709.78;4997507;28;20451;-78
2024/01/15 04:38:52;;;;;;;12.52;1.70;;;;;;;1.61;100.00;99726.13;5007711;28;20505;-78
2024/01/15 04:41:20;;;;;;;4.47;1.67;;;;;;;1.56;100.00;99729.50;5002102;28;20053;-78
2024/01/15 04:43:49;;;;;;;8.60;1.75;;;;;;;1.51;100.00;99738.94;4979329;28;20058;-79
2024/01/15 04:46:17;;;;;;;8.43;2.15;;;;;;;1.48;100.00;99740.56;4983221;28;20048;-79
2024/01/15 04:48:45;;;;;;;5.60;1.60;;;;;;;1.47;100.00;99752.66;5002709;28;20065;-79
2024/01/15 04:51:12;;;;;;;7.45;1.70;;;;;;;1.44;100.00;99744.81;4992964;28;20471;-80
2024/01/15 04:53:40;;;;;;;8.02;1.63;;;;;;;1.37;100.00;99745.53;4997774;28;20043;-79
2024/01/15 04:56:08;;;;;;;11.98;3.20;;;;;;;1.30;100.00;99741.88;4998691;28;20054;-79
2024/01/15 04:58:35;;;;;;;9.98;1.90;;;;;;;1.26;100.00;99728.81;4989963;28;21114;-78
2024/01/15 05:01:03;;;;;;;13.13;2.35;;;;;;;1.21;100.00;99731.31;4968851;28;20069;-79
2024/01/15 05:03:31;;;;;;;10.38;1.88;;;;;;;1.16;100.00;99715.63;4988387;28;20029;-78
2024/01/15 05:05:58;;;;;;;16.00;1.85;;;;;;;1.14;100.00;99712.13;5012655;28;20411;-78
2024/01/15 05:08:26;;;;;;;6.07;1.88;;;;;;;1.12;100.00;99720.72;4988609;28;20053;-79
2024/01/15 05:10:53;;;;;;;6.90;1.63;;;;;;;1.09;100.00;99728.44;5001367;28;20062;-78
2024/01/15 05:13:21;;;;;;;12.20;2.47;;;;;;;1.08;100.00;99742.25;4986764;28;20791;-80
2024/01/15 05:15:48;;;;;;;9.80;1.98;;;;;;;1.05;100.00;99745.66;4981815;28;20483;-79
2024/01/15 05:18:16;;;;;;;9.38;1.58;;;;;;;1.03;100.00;99731.75;4992227;28;20046;-79
2024/01/15 05:20:44;;;;;;;9.20;2.33;;;;;;;1.00;100.00;99736.88;4999334;28;20057;-79
2024/01/15 05:23:11;;;;;;;14.60;2.60;;;;;;;0.98;100.00;99717.78;4996256;28;20050;-79
2024/01/15 05:25:39;;;;;;;12.93;2.20;;;;;;;0.99;100.00;99724.75;5002862;28;20054;-78
2024/01/15 05:28:06;;;;;;;10.57;1.55;;;;;;;0.98;100.00;99725.56;5003505;28;20444;-80
2024/01/15 05:30:34;;;;;;;5.75;1.80;;;;;;;0.97;100.00;99716.94;4978330;28;20073;-78
2024/01/15 05:33:02;;;;;;;10.43;1.83;;;;;;;0.96;100.00;99701.31;4968211;28;20053;-80
2024/01/15 05:35:30;;;;;;;10.95;1.80;;;;;;;0.95;100.00;99708.22;4981124;28;20492;-79
2024/01/15 05:37:57;;;;;;;9.18;1.75;;;;;;;0.95;100.00;99699.59;4981934;28;20057;-78
2024/01/15 05:40:25;;;;;;;5.57;1.60;;;;;;;0.95;100.00;99712.56;4991525;28;20054;-80
2024/01/15 05:42:52;;;;;;;8.80;1.92;;;;;;;0.96;100.00;99696.13;4973261;28;20042;-79
2024/01/15 05:45:19;;;;;;;10.57;2.13;;;;;;;0.96;100.00;99693.53;4998243;28;20058;-78
2024/01/15 05:47:47;;;;;;;10.40;2.00;;;;;;;0.97;100.00;99695.31;4970135;28;20062;-79
2024/01/15 05:50:15;;;;;;;15.25;2.45;;;;;;;0.99;100.00;99693.63;5005539;28;20057;-79
2024/01/15 05:52:42;;;;;;;8.98;1.88;;;;;;;0.99;100.00;99693.63;4995627;28;20411;-78
2024/01/15 05:55:09;;;;;;;8.80;2.10;;;;;;;0.99;100.00;99695.34;4983971;28;20054;-78
2024/01/15 05:57:37;;;;;;;14.43;2.78;;;;;;;0.97;100.00;99690.97;5001448;28;20488;-78
2024/01/15 06:00:05;;;;;;;14.52;2.20;;;;;;;0.96;100.00;99694.44;4994596;28;20050;-78
2024/01/15 06:02:32;;;;;;;7.55;2.00;;;;;;;0.93;100.00;99694.34;4958215;28;22477;-79
2024/01/15 06:05:01;;;;;;;15.60;2.88;;;;;;;0.91;100.00;99692.56;4991687;28;20046;-79
2024/01/15 06:07:29;;;;;;;16.48;2.50;;;;;;;0.88;100.00;99689.91;5007991;28;20053;-78
2024/01/15 06:09:56;;;;;;;12.68;2.50;;;;;;;0.85;100.00;99685.53;4984867;28;20061;-79
2024/01/15 06:12:24;;;;;;;11.38;2.22;;;;;;;0.86;100.00;99697.63;4999667;28;20052;-79
2024/01/15 06:14:52;;;;;;;14.40;2.38;;;;;;;0.88;100.00;99693.34;4990066;28;20653;-78
2024/01/15 06:17:19;;;;;;;15.57;2.70;;;;;;;0.91;100.00;99689.97;4986275;28;20046;-79
2024/01/15 06:19:47;;;;;;;14.45;2.47;;;;;;;0.93;100.00;99698.66;4978555;28;20045;-78
2024/01/15 06:22:14;;;;;;;16.55;2.20;;;;;;;0.94;100.00;99697.81;4998330;28;20046;-78
2024/01/15 06:24:42;;;;;;;6.32;1.65;;;;;;;0.95;100.00;99703.03;4995391;28;20050;-78
2024/01/15 06:27:09;;;;;;;10.23;1.75;;;;;;;0.94;100.00;99687.44;5003546;28;20058;-78
2024/01/15 06:29:38;;;;;;;9.13;1.67;;;;;;;0.92;100.00;99697.78;5001741;28;20057;-79
2024/01/15 06:32:05;;;;;;;6.28;1.63;;;;;;;0.91;100.00;99713.31;4987182;28;20058;-79
2024/01/15 06:34:33;;;;;;;6.28;1.95;;;;;;;0.91;100.00;99734.06;4977639;28;20050;-79
2024/01/15 06:37:00;;;;;;;5.53;1.50;;;;;;;0.93;100.00;99735.00;4989953;28;20050;-79
2024/01/15 06:39:28;;;;;;;3.65;1.23;;;;;;;0.95;100.00;99725.53;4996657;28;20062;-79
2024/01/15 06:41:55;;;;;;;3.10;1.00;;;;;;;0.91;100.00;99713.31;5004546;28;20041;-79
2024/01/15 06:44:23;;;;;;;3.90;0.80;;;;;;;0.85;100.00;99720.94;4997710;28;20049;-78
2024/01/15 06:46:51;;;;;;;8.45;1.48;;;;;;;0.78;100.00;99710.41;5009575;28;20057;-78
2024/01/15 06:49:19;;;;;;;8.23;1.98;;;;;;;0.73;100.00;99724.13;4970010;28;20046;-78
2024/01/15 06:51:46;;;;;;;6.05;1.75;;;;;;;0.69;100.00;99705.00;5004988;28;20060;-78
2024/01/15 06:54:16;;;;;;;12.38;1.88;;;;;;;0.66;100.00;99702.38;4987816;28;20053;-79
2024/01/15 06:56:43;;;;;;;10.35;1.58;;;;;;;0.62;100.00;99695.31;5002828;28;20062;-78
2024/01/15 06:59:10;;;;;;;12.88;2.08;;;;;;;0.58;100.00;99691.78;5005216;28;20065;-79
2024/01/15 07:01:38;;;;;;;10.85;2.33;;;;;;;0.53;100.00;99703.75;4998221;28;20491;-78
2024/01/15 07:04:06;;;;;;;13.68;1.88;;;;;;;0.50;100.00;99695.03;4979500;28;20050;-79
2024/01/15 07:06:33;;;;;;;9.00;2.03;;;;;;;0.44;100.00;99693.16;4987236;28;20057;-78
2024/01/15 07:09:01;;;;;;;13.35;2.67;;;;;;;0.42;100.00;99691.34;5003043;28;20445;-80
2024/01/15 07:11:28;;;;;;;12.05;2.97;;;;;;;0.40;100.00;99688.75;4970583;28;20057;-79
2024/01/15 07:13:56;;;;;;;12.57;3.17;;;;;;;0.39;100.00;99695.63;4994511;28;20053;-78
2024/01/15 07:16:23;;;;;;;13.73;2.65;;;;;;;0.39;100.00;99692.16;5004806;28;20072;-79
2024/01/15 07:19:04;;;;;;;16.38;2.92;;;;;;;0.43;100.00;99698.28;5011616;28;20833;-79
2024/01/15 07:21:32;;;;;;;15.07;2.47;;;;;;;0.44;100.00;99695.75;4977135;28;20053;-79
2024/01/15 07:23:59;;;;;;;22.05;3.95;;;;;;;0.43;100.00;99700.88;5010115;28;20041;-79
2024/01/15 07:26:27;;;;;;;15.15;2.38;;;;;;;0.44;100.00;99702.66;4996178;28;20046;-79
2024/01/15 07:28:55;;;;;;;13.98;2.88;;;;;;;0.43;100.00;99698.28;5001815;28;20061;-79
2024/01/15 07:31:23;;;;;;;19.02;2.55;;;;;;;0.42;100.00;99700.03;4993558;28;20045;-79
2024/01/15 07:33:50;;;;;;;24.27;3.55;;;;;;;0.41;100.00;99697.38;4994208;28;20042;-80
2024/01/15 07:36:17;;;;;;;20.05;2.80;;;;;;;0.37;100.00;99697.28;4966801;28;20058;-79
2024/01/15 07:38:45;;;;;;;22.92;3.17;;;;;;;0.37;100.00;99689.50;5006698;28;20105;-79
2024/01/15 07:41:14;;;;;;;23.75;4.20;;;;;;;0.36;100.00;99692.09;4983534;28;20065;-79
2024/01/15 07:43:41;;;;;;;19.02;3.03;;;;;;;0.38;100.00;99704.25;4997997;28;20051;-78
2024/01/15 07:46:09;;;;;;;11.32;2.40;;;;;;;0.41;100.00;99697.38;4989487;28;20053;-79
2024/01/15 07:48:36;;;;;;;13.98;2.92;;;;;;;0.42;100.00;99691.34;4996976;28;20415;-80
2024/01/15 07:51:04;;;;;;;13.50;2.78;;;;;;;0.42;100.00;99691.34;4969660;28;20056;-79
2024/01/15 07:53:31;;;;;;;17.90;3.10;;;;;;;0.44;100.00;99697.47;5003392;28;20045;-79
2024/01/15 07:55:59;;;;;;;10.25;2.53;;;;;;;0.44;100.00;99693.16;4994391;28;20130;-81
2024/01/15 07:58:26;;;;;;;12.18;3.65;;;;;;;0.44;100.00;99694.88;4999350;28;20057;-79
2024/01/15 08:00:54;;;;;;;11.25;2.17;;;;;;;0.43;100.00;99693.13;5001639;28;20490;-79
2024/01/15 08:03:21;;;;;;;6.57;1.48;;;;;;;0.42;100.00;99688.75;4975991;28;20061;-79
2024/01/15 08:05:52;;;;;;;5.97;1.88;;;;;;;0.43;100.00;99688.78;4990323;28;20055;-79
2024/01/15 08:08:21;;;;;;;;;;;;;;;0.44;100.00;99676.75;4982017;28;20053;-79
2024/01/15 08:10:49;;;;;;;13.50;2.42;;;;;;;0.46;100.00;99681.09;4999774;28;20325;-80
2024/01/15 08:13:16;;;;;;;11.25;2.33;;;;;;;0.49;100.00;99678.59;4981375;28;20061;-79
2024/01/15 08:15:44;;;;;;;8.20;1.55;;;;;;;0.49;100.00;99677.72;4996246;28;20057;-79
2024/01/15 08:18:12;;;;;;;9.48;1.98;;;;;;;0.49;100.00;99678.59;4990042;28;20046;-78
2024/01/15 08:20:40;;;;;;;5.55;1.52;;;;;;;0.50;100.00;99695.03;4982191;28;20061;-79
2024/01/15 08:23:07;;;;;;;11.63;1.67;;;;;;;0.54;100.00;99694.25;4942260;28;20084;-80
2024/01/15 08:25:34;;;;;;;11.13;2.10;;;;;;;0.57;100.00;99692.63;5001143;28;20068;-80
2024/01/15 08:28:02;;;;;;;10.30;1.90;;;;;;;0.62;100.00;99700.50;4985879;28;20045;-79
2024/01/15 08:30:29;;;;;;;13.65;2.33;;;;;;;0.68;100.00;99711.06;5006659;28;20052;-79
2024/01/15 08:32:57;;;;;;;10.98;2.30;;;;;;;0.73;100.00;99699.06;4979964;28;20065;-80
2024/01/15 08:35:35;;;;;;;10.48;2.03;;;;;;;0.79;100.00;99700.91;4993617;28;20045;-78
2024/01/15 08:38:02;;;;;;;10.95;1.70;;;;;;;0.83;100.00;99691.50;4965220;28;20053;-79
2024/01/15 08:40:30;;;;;;;9.88;1.88;;;;;;;0.87;100.00;99699.41;4989148;28;20057;-79
2024/01/15 08:42:58;;;;;;;9.82;1.73;;;;;;;0.89;100.00;99704.59;4982695;28;20084;-79
2024/01/15 08:45:26;;;;;;;7.82;1.90;;;;;;;0.89;100.00;99699.41;5017697;28;20045;-78
2024/01/15 08:47:57;;;;;;;;;;;;;;;0.88;100.00;99698.53;5000960;28;20353;-79
2024/01/15 08:50:24;;;;;;;8.07;1.90;;;;;;;0.87;100.00;99701.09;4989930;28;19936;-79
2024/01/15 08:52:52;;;;;;;11.88;1.73;;;;;;;0.84;100.00;99701.91;4973815;28;20042;-79
2024/01/15 08:55:22;;;;;;;6.95;1.50;;;;;;;0.84;100.00;99704.50;5000553;28;20487;-79
2024/01/15 08:57:50;;;;;;;13.93;2.53;;;;;;;0.83;100.00;99704.47;4992195;28;20077;-79
2024/01/15 09:00:17;;;;;;;9.32;2.22;;;;;;;0.82;100.00;99708.78;4979960;28;20080;-80
2024/01/15 09:02:45;;;;;;;12.07;2.78;;;;;;;0.81;100.00;99708.75;4991824;28;20034;-78
2024/01/15 09:05:12;;;;;;;13.10;2.72;;;;;;;0.75;100.00;99693.91;4984836;28;20423;-80
2024/01/15 09:07:40;;;;;;;10.00;3.15;;;;;;;0.71;100.00;99690.34;4996308;28;20426;-80
2024/01/15 09:10:08;;;;;;;8.50;1.77;;;;;;;0.66;100.00;99694.59;4970155;28;20042;-79
2024/01/15 09:12:35;;;;;;;10.15;2.78;;;;;;;0.63;100.00;99697.09;5005763;28;20042;-79
2024/01/15 09:15:04;;;;;;;14.80;2.70;;;;;;;0.59;100.00;99695.25;4997756;28;20046;-78
2024/01/15 09:17:32;;;;;;;12.23;2.13;;;;;;;0.58;100.00;99701.28;4989378;28;20057;-78
2024/01/15 09:20:00;;;;;;;15.48;2.13;;;;;;;0.57;100.00;99695.22;4986184;28;20426;-79
2024/01/15 09:22:28;;;;;;;7.25;1.80;;;;;;;0.56;100.00;99696.03;4971015;28;20061;-80
2024/01/15 09:24:56;;;;;;;8.57;1.98;;;;;;;0.52;100.00;99706.31;4989840;28;20501;-80
2024/01/15 09:27:25;;;;;;;9.02;2.20;;;;;;;0.49;100.00;99703.63;4987689;28;20050;-78
2024/01/15 09:29:53;;;;;;;7.72;2.03;;;;;;;0.48;100.00;99694.13;4985769;28;20057;-79
2024/01/15 09:32:20;;;;;;;10.15;2.60;;;;;;;0.47;100.00;99689.75;4984342;28;20050;-79
2024/01/15 09:34:48;;;;;;;13.02;1.80;;;;;;;0.46;100.00;99690.59;5007324;28;20479;-78
2024/01/15 09:37:16;;;;;;;3.40;1.17;;;;;;;0.46;100.00;99680.25;4983383;28;20787;-78
2024/01/15 09:40:06;;;;;;;2.80;1.15;;;;;;;0.42;100.00;99676.69;4965806;28;20428;-80
2024/01/15 09:42:35;;;;;;;4.20;1.00;;;;;;;0.42;100.00;99668.00;5008512;28;20056;-79
2024/01/15 09:45:03;;;;;;;5.53;1.05;;;;;;;0.42;100.00;99671.50;4988656;28;20106;-79
2024/01/15 09:47:31;;;;;;;4.32;1.52;;;;;;;0.46;100.00;99677.66;5002310;28;20053;-80
2024/01/15 09:49:58;;;;;;;3.22;1.10;;;;;;;0.51;100.00;99673.44;5007700;28;20057;-79
2024/01/15 09:52:26;;;;;;;9.23;1.50;;;;;;;0.55;100.00;99673.56;4983008;28;20053;-79
2024/01/15 09:54:54;;;;;;;5.25;1.70;;;;;;;0.57;100.00;99687.44;4997383;28;20057;-80
2024/01/15 09:57:21;;;;;;;6.05;1.80;;;;;;;0.60;100.00;99709.97;4987765;28;20044;-79
2024/01/15 09:59:49;;;;;;;8.02;1.63;;;;;;;0.61;100.00;99723.81;4987870;28;20049;-80
2024/01/15 10:02:18;;;;;;;6.93;1.40;;;;;;;0.54;100.00;99720.19;5005685;28;20060;-78
2024/01/15 10:04:45;;;;;;;8.88;1.80;;;;;;;0.47;100.00;99726.91;5000875;28;20053;-80
2024/01/15 10:07:18;;;;;;;13.00;2.20;;;;;;;0.42;100.00;99723.34;4991431;28;20054;-78
2024/01/15 10:09:46;;;;;;;10.00;2.40;;;;;;;0.38;100.00;99724.13;5015958;28;20046;-79
2024/01/15 10:12:14;;;;;;;10.93;2.22;;;;;;;0.37;100.00;99718.03;4971560;28;20771;-77
2024/01/15 10:14:43;;;;;;;16.13;2.08;;;;;;;0.37;100.00;99715.44;4994095;28;21965;-78
2024/01/15 10:17:15;;;;;;;12.80;2.08;;;;;;;0.36;100.00;99705.91;4985766;28;20042;-78
2024/01/15 10:19:42;;;;;;;8.57;2.00;;;;;;;0.37;100.00;99697.28;5003165;28;20049;-77
2024/01/15 10:22:15;;;;;;;14.07;2.40;;;;;;;0.39;100.00;99698.22;5001900;28;20034;-78
2024/01/15 10:24:43;;;;;;;10.38;2.08;;;;;;;0.44;100.00;99689.69;4994134;28;20060;-78
2024/01/15 10:27:11;;;;;;;11.75;2.10;;;;;;;0.47;100.00;99703.59;4973559;28;20049;-78
2024/01/15 10:29:38;;;;;;;20.52;2.80;;;;;;;0.53;100.00;99708.94;4995334;28;20526;-77
2024/01/15 10:32:08;;;;;;;10.40;2.78;;;;;;;0.56;100.00;99705.53;4988864;28;20399;-77
2024/01/15 10:34:40;;;;;;;8.23;2.25;;;;;;;0.55;100.00;99707.28;4965452;28;20050;-77
2024/01/15 10:37:09;;;;;;;7.50;2.40;;;;;;;0.53;100.00;99710.63;4979201;28;20053;-77
2024/01/15 10:39:37;;;;;;;11.75;2.65;;;;;;;0.51;100.00;99705.44;5000977;28;20495;-77
2024/01/15 10:42:06;;;;;;;10.98;2.30;;;;;;;0.49;100.00;99698.44;4974094;28;20050;-80
2024/01/15 10:44:35;;;;;;;10.55;2.28;;;;;;;0.49;100.00;99711.41;5030028;28;20065;-78
2024/01/15 10:47:03;;;;;;;13.63;2.20;;;;;;;0.48;100.00;99700.16;4997322;28;20065;-77
2024/01/15 10:49:31;;;;;;;10.60;2.05;;;;;;;0.48;100.00;99691.53;5033357;28;20050;-79
2024/01/15 10:52:01;;;;;;;9.48;2.13;;;;;;;0.51;100.00;99689.00;5008280;28;20499;-79
2024/01/15 10:54:30;;;;;;;9.63;2.50;;;;;;;0.53;100.00;99687.31;5016662;28;20510;-79
2024/01/15 10:56:58;;;;;;;6.93;1.60;;;;;;;0.58;100.00;99685.72;4998511;28;20046;-80
2024/01/15 10:59:25;;;;;;;6.43;1.77;;;;;;;0.63;100.00;99681.53;5001940;28;20049;-79
2024/01/15 11:01:53;;;;;;;9.93;2.33;;;;;;;0.68;100.00;99677.34;4996375;28;20426;-79
2024/01/15 11:04:23;;;;;;;2.30;1.30;;;;;;;0.73;100.00;99683.50;5002166;28;20419;-80
2024/01/15 11:06:53;;;;;;;5.95;1.50;;;;;;;0.77;100.00;99681.84;5008594;28;20057;-79
2024/01/15 11:09:25;;;;;;;10.40;2.92;;;;;;;0.82;100.00;99681.97;4997563;28;20046;-80
2024/01/15 11:12:13;;;;;;;4.15;1.00;;;;;;;0.89;100.00;99678.66;5004834;28;20057;-80
2024/01/15 11:14:46;;;;;;;6.72;1.08;;;;;;;0.93;100.00;99677.91;4985162;28;20049;-79
2024/01/15 11:17:14;;;;;;;2.08;0.90;;;;;;;0.98;100.00;99686.66;4988913;28;20065;-79
2024/01/15 11:19:41;;;;;;;12.02;1.35;;;;;;;1.01;100.00;99680.69;4988601;28;20081;-80
2024/01/15 11:22:11;;;;;;;4.50;1.85;;;;;;;1.05;100.00;99691.16;4997432;28;20135;-79
2024/01/15 11:24:40;;;;;;;2.42;0.68;;;;;;;1.07;100.00;99697.25;4995808;28;20050;-79
2024/01/15 11:27:08;;;;;;;4.10;0.80;;;;;;;1.04;100.00;99715.38;5005822;28;20050;-78
2024/01/15 11:29:37;;;;;;;5.00;0.85;;;;;;;1.01;100.00;99707.50;4979780;28;20056;-79
2024/01/15 11:32:06;;;;;;;3.72;0.70;;;;;;;1.00;100.00;99704.88;4988428;28;20234;-79
2024/01/15 11:34:53;;;;;;;1.63;0.70;;;;;;;0.98;100.00;99691.84;4985532;28;20056;-79